Updated23/05/2018 08:00 
 

GeoURL
free counters
Scottish Weather Network UK Weather Network Cumulus Top Weather Sites

Peebles Weather - Meteograms

Raw Data, Raw Data Expanded

Ignore low humidity and Dew Point values. Something wrong with the sensor.
Daytime temperatures are in direct sunlight so may be higher than official air temperature values.

All times are in BST (UTC+1) unless specified.

2018/05/23 06:50 EGPH 230650Z 07008KT 9999 BKN012 09/07 Q1028
8.4°C 0.0 mm 0.0 mm 0.0 mm 2.8 mph 3.8 mph 1023.9 hPa 66% X-Ray Solar Flare Level
Planetary K-Index
Planetary K-Index History
Station Warn Rain Snow Flood Wind Ltng Heat Cold Glob Moon Temp Rain 1h Rain Wed Rain 24h Wind 10m Gust Pressure Hum Proton Levels

0.259 m Waxing Gibbous Cool F1-ESE F:71 A:6 Kp:3 SSN:12

Meteograms





 

XHTML 1.1 | CSS